sensor_id;sensor_type;location;lat;lon;timestamp;temperature;humidity
51383;DHT22;37475;43.358;1.248;2023-12-20T00:01:32;7.40;86.40
51383;DHT22;37475;43.358;1.248;2023-12-20T00:03:58;7.40;86.30
51383;DHT22;37475;43.358;1.248;2023-12-20T00:06:24;7.50;86.20
51383;DHT22;37475;43.358;1.248;2023-12-20T00:08:50;7.50;86.00
51383;DHT22;37475;43.358;1.248;2023-12-20T00:11:16;7.50;85.80
51383;DHT22;37475;43.358;1.248;2023-12-20T00:13:41;7.60;85.70
51383;DHT22;37475;43.358;1.248;2023-12-20T00:16:07;7.60;85.50
51383;DHT22;37475;43.358;1.248;2023-12-20T00:18:33;7.60;85.50
51383;DHT22;37475;43.358;1.248;2023-12-20T00:20:59;7.60;85.60
51383;DHT22;37475;43.358;1.248;2023-12-20T00:23:24;7.60;85.50
51383;DHT22;37475;43.358;1.248;2023-12-20T00:25:50;7.60;85.70
51383;DHT22;37475;43.358;1.248;2023-12-20T00:28:16;7.60;85.50
51383;DHT22;37475;43.358;1.248;2023-12-20T00:30:41;7.60;85.60
51383;DHT22;37475;43.358;1.248;2023-12-20T00:33:07;7.60;85.50
51383;DHT22;37475;43.358;1.248;2023-12-20T00:35:33;7.60;85.60
51383;DHT22;37475;43.358;1.248;2023-12-20T00:37:59;7.60;85.60
51383;DHT22;37475;43.358;1.248;2023-12-20T00:40:25;7.60;85.50
51383;DHT22;37475;43.358;1.248;2023-12-20T00:42:50;7.60;85.70
51383;DHT22;37475;43.358;1.248;2023-12-20T00:45:16;7.60;85.90
51383;DHT22;37475;43.358;1.248;2023-12-20T00:47:42;7.60;86.10
51383;DHT22;37475;43.358;1.248;2023-12-20T00:50:08;7.60;86.20
51383;DHT22;37475;43.358;1.248;2023-12-20T00:52:35;7.60;86.30
51383;DHT22;37475;43.358;1.248;2023-12-20T00:55:00;7.60;86.20
51383;DHT22;37475;43.358;1.248;2023-12-20T00:57:26;7.60;86.20
51383;DHT22;37475;43.358;1.248;2023-12-20T00:59:52;7.50;86.20
51383;DHT22;37475;43.358;1.248;2023-12-20T01:02:18;7.60;86.20
51383;DHT22;37475;43.358;1.248;2023-12-20T01:04:44;7.60;86.20
51383;DHT22;37475;43.358;1.248;2023-12-20T01:07:10;7.60;85.90
51383;DHT22;37475;43.358;1.248;2023-12-20T01:09:36;7.60;85.90
51383;DHT22;37475;43.358;1.248;2023-12-20T01:12:01;7.60;85.80
51383;DHT22;37475;43.358;1.248;2023-12-20T01:14:27;7.60;85.90
51383;DHT22;37475;43.358;1.248;2023-12-20T01:16:53;7.70;85.80
51383;DHT22;37475;43.358;1.248;2023-12-20T01:19:19;7.60;85.80
51383;DHT22;37475;43.358;1.248;2023-12-20T01:21:44;7.60;85.80
51383;DHT22;37475;43.358;1.248;2023-12-20T01:24:10;7.60;86.00
51383;DHT22;37475;43.358;1.248;2023-12-20T01:26:36;7.60;85.90
51383;DHT22;37475;43.358;1.248;2023-12-20T01:29:02;7.60;85.90
51383;DHT22;37475;43.358;1.248;2023-12-20T01:31:27;7.60;86.00
51383;DHT22;37475;43.358;1.248;2023-12-20T01:33:53;7.60;85.70
51383;DHT22;37475;43.358;1.248;2023-12-20T01:36:19;7.70;85.70
51383;DHT22;37475;43.358;1.248;2023-12-20T01:38:45;7.70;85.70
51383;DHT22;37475;43.358;1.248;2023-12-20T01:41:11;7.70;85.60
51383;DHT22;37475;43.358;1.248;2023-12-20T01:43:36;7.80;85.50
51383;DHT22;37475;43.358;1.248;2023-12-20T01:46:02;7.80;85.40
51383;DHT22;37475;43.358;1.248;2023-12-20T01:48:29;7.70;85.20
51383;DHT22;37475;43.358;1.248;2023-12-20T01:50:58;7.80;85.20
51383;DHT22;37475;43.358;1.248;2023-12-20T01:53:25;7.80;85.30
51383;DHT22;37475;43.358;1.248;2023-12-20T01:55:54;7.70;85.50
51383;DHT22;37475;43.358;1.248;2023-12-20T01:58:21;7.70;85.70
51383;DHT22;37475;43.358;1.248;2023-12-20T02:00:48;7.80;85.50
51383;DHT22;37475;43.358;1.248;2023-12-20T02:03:14;7.80;85.40
51383;DHT22;37475;43.358;1.248;2023-12-20T02:05:40;7.90;85.50
51383;DHT22;37475;43.358;1.248;2023-12-20T02:08:06;7.90;85.60
51383;DHT22;37475;43.358;1.248;2023-12-20T02:10:32;7.80;85.70
51383;DHT22;37475;43.358;1.248;2023-12-20T02:12:59;7.80;86.00
51383;DHT22;37475;43.358;1.248;2023-12-20T02:15:25;7.80;85.80
51383;DHT22;37475;43.358;1.248;2023-12-20T02:17:51;7.80;85.90
51383;DHT22;37475;43.358;1.248;2023-12-20T02:20:17;7.70;85.90
51383;DHT22;37475;43.358;1.248;2023-12-20T02:22:43;7.70;86.00
51383;DHT22;37475;43.358;1.248;2023-12-20T02:25:09;7.70;85.90
51383;DHT22;37475;43.358;1.248;2023-12-20T02:27:35;7.70;85.60
51383;DHT22;37475;43.358;1.248;2023-12-20T02:30:01;7.70;85.60
51383;DHT22;37475;43.358;1.248;2023-12-20T02:32:27;7.70;86.00
51383;DHT22;37475;43.358;1.248;2023-12-20T02:34:55;7.70;86.30
51383;DHT22;37475;43.358;1.248;2023-12-20T02:37:21;7.60;86.60
51383;DHT22;37475;43.358;1.248;2023-12-20T02:39:47;7.60;86.70
51383;DHT22;37475;43.358;1.248;2023-12-20T02:42:13;7.60;86.50
51383;DHT22;37475;43.358;1.248;2023-12-20T02:44:39;7.60;86.70
51383;DHT22;37475;43.358;1.248;2023-12-20T02:47:04;7.60;86.60
51383;DHT22;37475;43.358;1.248;2023-12-20T02:49:30;7.60;86.50
51383;DHT22;37475;43.358;1.248;2023-12-20T02:51:56;7.70;86.50
51383;DHT22;37475;43.358;1.248;2023-12-20T02:54:22;7.70;86.40
51383;DHT22;37475;43.358;1.248;2023-12-20T02:56:48;7.70;86.30
51383;DHT22;37475;43.358;1.248;2023-12-20T02:59:13;7.70;86.50
51383;DHT22;37475;43.358;1.248;2023-12-20T03:01:44;7.70;86.40
51383;DHT22;37475;43.358;1.248;2023-12-20T03:04:10;7.70;86.10
51383;DHT22;37475;43.358;1.248;2023-12-20T03:06:37;7.70;85.80
51383;DHT22;37475;43.358;1.248;2023-12-20T03:09:03;7.70;85.80
51383;DHT22;37475;43.358;1.248;2023-12-20T03:11:29;7.80;85.70
51383;DHT22;37475;43.358;1.248;2023-12-20T03:13:56;7.80;85.70
51383;DHT22;37475;43.358;1.248;2023-12-20T03:16:22;7.80;85.80
51383;DHT22;37475;43.358;1.248;2023-12-20T03:18:48;7.80;85.70
51383;DHT22;37475;43.358;1.248;2023-12-20T03:21:14;7.90;85.70
51383;DHT22;37475;43.358;1.248;2023-12-20T03:23:40;7.80;85.70
51383;DHT22;37475;43.358;1.248;2023-12-20T03:26:09;7.90;85.80
51383;DHT22;37475;43.358;1.248;2023-12-20T03:28:36;7.80;85.80
51383;DHT22;37475;43.358;1.248;2023-12-20T03:31:02;7.80;85.80
51383;DHT22;37475;43.358;1.248;2023-12-20T03:33:29;7.90;85.90
51383;DHT22;37475;43.358;1.248;2023-12-20T03:35:55;7.90;86.20
51383;DHT22;37475;43.358;1.248;2023-12-20T03:38:21;7.80;86.70
51383;DHT22;37475;43.358;1.248;2023-12-20T03:40:49;7.80;86.90
51383;DHT22;37475;43.358;1.248;2023-12-20T03:43:15;7.80;87.40
51383;DHT22;37475;43.358;1.248;2023-12-20T03:45:42;7.70;87.90
51383;DHT22;37475;43.358;1.248;2023-12-20T03:48:08;7.60;88.50
51383;DHT22;37475;43.358;1.248;2023-12-20T03:50:34;7.60;88.90
51383;DHT22;37475;43.358;1.248;2023-12-20T03:53:00;7.60;89.50
51383;DHT22;37475;43.358;1.248;2023-12-20T03:55:26;7.50;89.90
51383;DHT22;37475;43.358;1.248;2023-12-20T03:57:52;7.50;90.30
51383;DHT22;37475;43.358;1.248;2023-12-20T04:00:18;7.50;90.50
51383;DHT22;37475;43.358;1.248;2023-12-20T04:02:43;7.50;90.90
51383;DHT22;37475;43.358;1.248;2023-12-20T04:05:10;7.40;91.30
51383;DHT22;37475;43.358;1.248;2023-12-20T04:07:36;7.40;91.70
51383;DHT22;37475;43.358;1.248;2023-12-20T04:10:02;7.40;92.00
51383;DHT22;37475;43.358;1.248;2023-12-20T04:12:29;7.30;92.20
51383;DHT22;37475;43.358;1.248;2023-12-20T04:14:56;7.20;92.60
51383;DHT22;37475;43.358;1.248;2023-12-20T04:17:22;7.20;92.90
51383;DHT22;37475;43.358;1.248;2023-12-20T04:19:51;7.10;93.30
51383;DHT22;37475;43.358;1.248;2023-12-20T04:22:18;7.20;93.60
51383;DHT22;37475;43.358;1.248;2023-12-20T04:24:44;7.10;94.00
51383;DHT22;37475;43.358;1.248;2023-12-20T04:27:10;7.10;94.10
51383;DHT22;37475;43.358;1.248;2023-12-20T04:29:36;7.10;94.40
51383;DHT22;37475;43.358;1.248;2023-12-20T04:32:03;7.10;94.60
51383;DHT22;37475;43.358;1.248;2023-12-20T04:34:29;7.20;94.70
51383;DHT22;37475;43.358;1.248;2023-12-20T04:36:55;7.20;94.80
51383;DHT22;37475;43.358;1.248;2023-12-20T04:39:21;7.20;94.90
51383;DHT22;37475;43.358;1.248;2023-12-20T04:41:47;7.30;95.00
51383;DHT22;37475;43.358;1.248;2023-12-20T04:44:15;7.30;95.10
51383;DHT22;37475;43.358;1.248;2023-12-20T04:46:41;7.30;95.20
51383;DHT22;37475;43.358;1.248;2023-12-20T04:49:07;7.40;95.30
51383;DHT22;37475;43.358;1.248;2023-12-20T04:51:34;7.40;95.50
51383;DHT22;37475;43.358;1.248;2023-12-20T04:54:00;7.40;95.70
51383;DHT22;37475;43.358;1.248;2023-12-20T04:56:26;7.50;95.80
51383;DHT22;37475;43.358;1.248;2023-12-20T04:58:52;7.50;95.80
51383;DHT22;37475;43.358;1.248;2023-12-20T05:01:18;7.50;95.80
51383;DHT22;37475;43.358;1.248;2023-12-20T05:03:44;7.50;96.00
51383;DHT22;37475;43.358;1.248;2023-12-20T05:06:10;7.50;96.00
51383;DHT22;37475;43.358;1.248;2023-12-20T05:08:36;7.50;96.00
51383;DHT22;37475;43.358;1.248;2023-12-20T05:11:02;7.50;96.10
51383;DHT22;37475;43.358;1.248;2023-12-20T05:13:28;7.50;96.10
51383;DHT22;37475;43.358;1.248;2023-12-20T05:15:54;7.50;96.10
51383;DHT22;37475;43.358;1.248;2023-12-20T05:18:21;7.50;96.20
51383;DHT22;37475;43.358;1.248;2023-12-20T05:20:47;7.50;96.20
51383;DHT22;37475;43.358;1.248;2023-12-20T05:23:13;7.50;96.20
51383;DHT22;37475;43.358;1.248;2023-12-20T05:25:39;7.50;96.20
51383;DHT22;37475;43.358;1.248;2023-12-20T05:28:05;7.60;96.30
51383;DHT22;37475;43.358;1.248;2023-12-20T05:30:31;7.60;96.30
51383;DHT22;37475;43.358;1.248;2023-12-20T05:32:57;7.50;96.40
51383;DHT22;37475;43.358;1.248;2023-12-20T05:35:22;7.50;96.40
51383;DHT22;37475;43.358;1.248;2023-12-20T05:37:49;7.50;96.40
51383;DHT22;37475;43.358;1.248;2023-12-20T05:40:15;7.60;96.40
51383;DHT22;37475;43.358;1.248;2023-12-20T05:42:41;7.60;96.50
51383;DHT22;37475;43.358;1.248;2023-12-20T05:45:07;7.70;96.70
51383;DHT22;37475;43.358;1.248;2023-12-20T05:47:33;7.90;96.70
51383;DHT22;37475;43.358;1.248;2023-12-20T05:49:59;8.40;96.90
51383;DHT22;37475;43.358;1.248;2023-12-20T05:52:24;8.60;96.90
51383;DHT22;37475;43.358;1.248;2023-12-20T05:54:50;8.70;96.90
51383;DHT22;37475;43.358;1.248;2023-12-20T05:57:16;8.80;96.80
51383;DHT22;37475;43.358;1.248;2023-12-20T05:59:42;8.90;96.70
51383;DHT22;37475;43.358;1.248;2023-12-20T06:02:08;9.00;96.50
51383;DHT22;37475;43.358;1.248;2023-12-20T06:04:33;9.00;96.50
51383;DHT22;37475;43.358;1.248;2023-12-20T06:06:59;9.10;96.50
51383;DHT22;37475;43.358;1.248;2023-12-20T06:09:27;9.10;96.40
51383;DHT22;37475;43.358;1.248;2023-12-20T06:11:52;9.20;96.20
51383;DHT22;37475;43.358;1.248;2023-12-20T06:14:18;9.20;96.20
51383;DHT22;37475;43.358;1.248;2023-12-20T06:16:45;9.30;96.10
51383;DHT22;37475;43.358;1.248;2023-12-20T06:19:11;9.30;96.00
51383;DHT22;37475;43.358;1.248;2023-12-20T06:21:37;9.40;96.00
51383;DHT22;37475;43.358;1.248;2023-12-20T06:24:03;9.40;96.00
51383;DHT22;37475;43.358;1.248;2023-12-20T06:26:29;9.40;95.90
51383;DHT22;37475;43.358;1.248;2023-12-20T06:28:55;9.50;95.80
51383;DHT22;37475;43.358;1.248;2023-12-20T06:31:21;9.50;95.80
51383;DHT22;37475;43.358;1.248;2023-12-20T06:33:46;9.50;95.60
51383;DHT22;37475;43.358;1.248;2023-12-20T06:36:13;9.50;95.50
51383;DHT22;37475;43.358;1.248;2023-12-20T06:38:39;9.50;95.40
51383;DHT22;37475;43.358;1.248;2023-12-20T06:41:05;9.50;95.40
51383;DHT22;37475;43.358;1.248;2023-12-20T06:43:31;9.50;95.40
51383;DHT22;37475;43.358;1.248;2023-12-20T06:45:58;9.50;95.40
51383;DHT22;37475;43.358;1.248;2023-12-20T06:48:24;9.50;95.30
51383;DHT22;37475;43.358;1.248;2023-12-20T06:50:50;9.50;95.40
51383;DHT22;37475;43.358;1.248;2023-12-20T06:53:15;9.50;95.40
51383;DHT22;37475;43.358;1.248;2023-12-20T06:55:42;9.50;95.30
51383;DHT22;37475;43.358;1.248;2023-12-20T06:58:07;9.50;95.30
51383;DHT22;37475;43.358;1.248;2023-12-20T07:00:34;9.50;95.30
51383;DHT22;37475;43.358;1.248;2023-12-20T07:03:00;9.50;95.30
51383;DHT22;37475;43.358;1.248;2023-12-20T07:05:26;9.50;95.40
51383;DHT22;37475;43.358;1.248;2023-12-20T07:07:52;9.40;95.40
51383;DHT22;37475;43.358;1.248;2023-12-20T07:10:18;9.40;95.50
51383;DHT22;37475;43.358;1.248;2023-12-20T07:12:44;9.40;95.60
51383;DHT22;37475;43.358;1.248;2023-12-20T07:15:10;9.30;95.70
51383;DHT22;37475;43.358;1.248;2023-12-20T07:17:36;9.30;95.70
51383;DHT22;37475;43.358;1.248;2023-12-20T07:20:02;9.30;95.80
51383;DHT22;37475;43.358;1.248;2023-12-20T07:22:33;9.30;95.80
51383;DHT22;37475;43.358;1.248;2023-12-20T07:24:59;9.30;95.90
51383;DHT22;37475;43.358;1.248;2023-12-20T07:27:26;9.30;95.90
51383;DHT22;37475;43.358;1.248;2023-12-20T07:29:52;9.30;95.90
51383;DHT22;37475;43.358;1.248;2023-12-20T07:32:18;9.30;95.90
51383;DHT22;37475;43.358;1.248;2023-12-20T07:34:44;9.30;95.90
51383;DHT22;37475;43.358;1.248;2023-12-20T07:37:10;9.30;95.90
51383;DHT22;37475;43.358;1.248;2023-12-20T07:39:39;9.30;95.90
51383;DHT22;37475;43.358;1.248;2023-12-20T07:42:06;9.20;95.90
51383;DHT22;37475;43.358;1.248;2023-12-20T07:44:32;9.30;95.80
51383;DHT22;37475;43.358;1.248;2023-12-20T07:46:58;9.20;95.80
51383;DHT22;37475;43.358;1.248;2023-12-20T07:49:24;9.10;95.60
51383;DHT22;37475;43.358;1.248;2023-12-20T07:51:50;9.20;95.60
51383;DHT22;37475;43.358;1.248;2023-12-20T07:54:16;9.10;95.50
51383;DHT22;37475;43.358;1.248;2023-12-20T07:56:42;9.10;95.50
51383;DHT22;37475;43.358;1.248;2023-12-20T07:59:08;9.00;95.40
51383;DHT22;37475;43.358;1.248;2023-12-20T08:01:33;9.00;95.20
51383;DHT22;37475;43.358;1.248;2023-12-20T08:03:59;9.00;95.10
51383;DHT22;37475;43.358;1.248;2023-12-20T08:06:25;9.00;95.00
51383;DHT22;37475;43.358;1.248;2023-12-20T08:08:51;9.00;94.90
51383;DHT22;37475;43.358;1.248;2023-12-20T08:11:16;9.00;94.80
51383;DHT22;37475;43.358;1.248;2023-12-20T08:13:43;9.00;94.80
51383;DHT22;37475;43.358;1.248;2023-12-20T08:16:08;8.90;94.80
51383;DHT22;37475;43.358;1.248;2023-12-20T08:18:34;8.90;94.90
51383;DHT22;37475;43.358;1.248;2023-12-20T08:21:00;8.80;94.90
51383;DHT22;37475;43.358;1.248;2023-12-20T08:23:27;8.80;94.90
51383;DHT22;37475;43.358;1.248;2023-12-20T08:25:52;8.70;94.80
51383;DHT22;37475;43.358;1.248;2023-12-20T08:28:18;8.70;94.90
51383;DHT22;37475;43.358;1.248;2023-12-20T08:30:44;8.80;95.00
51383;DHT22;37475;43.358;1.248;2023-12-20T08:33:10;8.70;95.10
51383;DHT22;37475;43.358;1.248;2023-12-20T08:35:39;8.60;95.20
51383;DHT22;37475;43.358;1.248;2023-12-20T08:38:05;8.60;95.30
51383;DHT22;37475;43.358;1.248;2023-12-20T08:40:31;8.60;95.40
51383;DHT22;37475;43.358;1.248;2023-12-20T08:42:57;8.60;95.60
51383;DHT22;37475;43.358;1.248;2023-12-20T08:45:23;8.50;95.70
51383;DHT22;37475;43.358;1.248;2023-12-20T08:47:48;8.50;95.70
51383;DHT22;37475;43.358;1.248;2023-12-20T08:50:14;8.40;95.60
51383;DHT22;37475;43.358;1.248;2023-12-20T08:52:40;8.40;95.30
51383;DHT22;37475;43.358;1.248;2023-12-20T08:55:07;8.40;95.00
51383;DHT22;37475;43.358;1.248;2023-12-20T08:57:33;8.50;94.80
51383;DHT22;37475;43.358;1.248;2023-12-20T08:59:59;8.60;94.70
51383;DHT22;37475;43.358;1.248;2023-12-20T09:02:25;8.60;94.50
51383;DHT22;37475;43.358;1.248;2023-12-20T09:04:51;8.60;94.50
51383;DHT22;37475;43.358;1.248;2023-12-20T09:07:24;8.60;94.40
51383;DHT22;37475;43.358;1.248;2023-12-20T09:09:50;8.60;94.40
51383;DHT22;37475;43.358;1.248;2023-12-20T09:12:20;8.60;94.50
51383;DHT22;37475;43.358;1.248;2023-12-20T09:14:46;8.60;94.60
51383;DHT22;37475;43.358;1.248;2023-12-20T09:17:13;8.60;94.50
51383;DHT22;37475;43.358;1.248;2023-12-20T09:19:39;8.60;94.40
51383;DHT22;37475;43.358;1.248;2023-12-20T09:22:06;8.60;94.40
51383;DHT22;37475;43.358;1.248;2023-12-20T09:24:32;8.60;94.40
51383;DHT22;37475;43.358;1.248;2023-12-20T09:26:58;8.60;94.40
51383;DHT22;37475;43.358;1.248;2023-12-20T09:29:24;8.60;94.00
51383;DHT22;37475;43.358;1.248;2023-12-20T09:31:50;8.60;93.90
51383;DHT22;37475;43.358;1.248;2023-12-20T09:34:16;8.60;93.60
51383;DHT22;37475;43.358;1.248;2023-12-20T09:36:44;8.70;93.30
51383;DHT22;37475;43.358;1.248;2023-12-20T09:39:17;8.60;93.20
51383;DHT22;37475;43.358;1.248;2023-12-20T09:42:06;8.70;93.20
51383;DHT22;37475;43.358;1.248;2023-12-20T09:44:33;8.70;93.40
51383;DHT22;37475;43.358;1.248;2023-12-20T09:47:04;8.70;93.50
51383;DHT22;37475;43.358;1.248;2023-12-20T09:49:30;8.70;93.60
51383;DHT22;37475;43.358;1.248;2023-12-20T09:51:56;8.70;93.60
51383;DHT22;37475;43.358;1.248;2023-12-20T09:54:23;8.70;93.50
51383;DHT22;37475;43.358;1.248;2023-12-20T09:56:50;8.70;93.40
51383;DHT22;37475;43.358;1.248;2023-12-20T09:59:16;8.70;93.30
51383;DHT22;37475;43.358;1.248;2023-12-20T10:01:42;8.80;93.30
51383;DHT22;37475;43.358;1.248;2023-12-20T10:04:10;8.80;93.20
51383;DHT22;37475;43.358;1.248;2023-12-20T10:06:44;8.80;93.30
51383;DHT22;37475;43.358;1.248;2023-12-20T10:09:11;8.90;93.30
51383;DHT22;37475;43.358;1.248;2023-12-20T10:11:40;9.00;93.20
51383;DHT22;37475;43.358;1.248;2023-12-20T10:14:07;9.00;93.30
51383;DHT22;37475;43.358;1.248;2023-12-20T10:16:33;9.00;93.20
51383;DHT22;37475;43.358;1.248;2023-12-20T10:19:00;9.00;92.90
51383;DHT22;37475;43.358;1.248;2023-12-20T10:21:27;9.00;93.00
51383;DHT22;37475;43.358;1.248;2023-12-20T10:23:57;9.00;92.70
51383;DHT22;37475;43.358;1.248;2023-12-20T10:26:24;9.10;92.70
51383;DHT22;37475;43.358;1.248;2023-12-20T10:28:54;9.10;92.90
51383;DHT22;37475;43.358;1.248;2023-12-20T10:33:53;9.10;92.80
51383;DHT22;37475;43.358;1.248;2023-12-20T10:36:19;9.10;92.80
51383;DHT22;37475;43.358;1.248;2023-12-20T10:38:46;9.10;92.10
51383;DHT22;37475;43.358;1.248;2023-12-20T10:41:14;9.30;91.70
51383;DHT22;37475;43.358;1.248;2023-12-20T10:43:43;9.50;91.60
51383;DHT22;37475;43.358;1.248;2023-12-20T10:46:09;9.50;90.30
51383;DHT22;37475;43.358;1.248;2023-12-20T10:48:36;9.60;89.60
51383;DHT22;37475;43.358;1.248;2023-12-20T10:51:04;9.50;89.50
51383;DHT22;37475;43.358;1.248;2023-12-20T10:53:30;9.50;89.60
51383;DHT22;37475;43.358;1.248;2023-12-20T10:56:00;9.60;89.80
51383;DHT22;37475;43.358;1.248;2023-12-20T10:58:26;9.60;90.20
51383;DHT22;37475;43.358;1.248;2023-12-20T11:01:00;9.60;90.10
51383;DHT22;37475;43.358;1.248;2023-12-20T11:03:34;10.20;90.30
51383;DHT22;37475;43.358;1.248;2023-12-20T11:06:10;10.20;89.20
51383;DHT22;37475;43.358;1.248;2023-12-20T11:09:16;10.10;88.90
51383;DHT22;37475;43.358;1.248;2023-12-20T11:14:47;9.90;89.50
51383;DHT22;37475;43.358;1.248;2023-12-20T11:17:14;9.70;89.60
51383;DHT22;37475;43.358;1.248;2023-12-20T11:22:24;9.80;89.90
51383;DHT22;37475;43.358;1.248;2023-12-20T11:24:52;9.90;89.90
51383;DHT22;37475;43.358;1.248;2023-12-20T11:27:19;9.60;89.40
51383;DHT22;37475;43.358;1.248;2023-12-20T11:29:52;9.50;89.40
51383;DHT22;37475;43.358;1.248;2023-12-20T11:32:27;9.40;88.80
51383;DHT22;37475;43.358;1.248;2023-12-20T11:37:36;9.70;88.00
51383;DHT22;37475;43.358;1.248;2023-12-20T11:40:06;9.60;87.70
51383;DHT22;37475;43.358;1.248;2023-12-20T11:42:51;9.70;88.20
51383;DHT22;37475;43.358;1.248;2023-12-20T11:45:23;10.30;88.00
51383;DHT22;37475;43.358;1.248;2023-12-20T11:47:51;10.80;85.80
51383;DHT22;37475;43.358;1.248;2023-12-20T11:50:22;10.90;84.10
51383;DHT22;37475;43.358;1.248;2023-12-20T11:52:49;10.70;83.50
51383;DHT22;37475;43.358;1.248;2023-12-20T11:55:15;10.40;84.20
51383;DHT22;37475;43.358;1.248;2023-12-20T11:57:42;10.30;84.50
51383;DHT22;37475;43.358;1.248;2023-12-20T12:00:08;11.00;83.20
51383;DHT22;37475;43.358;1.248;2023-12-20T12:02:35;11.30;81.70
51383;DHT22;37475;43.358;1.248;2023-12-20T12:05:01;11.50;80.70
51383;DHT22;37475;43.358;1.248;2023-12-20T12:07:27;11.30;80.00
51383;DHT22;37475;43.358;1.248;2023-12-20T12:09:53;10.90;80.90
51383;DHT22;37475;43.358;1.248;2023-12-20T12:12:19;10.10;81.50
51383;DHT22;37475;43.358;1.248;2023-12-20T12:14:46;9.90;83.70
51383;DHT22;37475;43.358;1.248;2023-12-20T12:17:12;9.80;84.60
51383;DHT22;37475;43.358;1.248;2023-12-20T12:19:40;9.60;83.80
51383;DHT22;37475;43.358;1.248;2023-12-20T12:22:10;9.50;83.00
51383;DHT22;37475;43.358;1.248;2023-12-20T12:24:43;9.90;82.40
51383;DHT22;37475;43.358;1.248;2023-12-20T12:27:11;10.20;81.50
51383;DHT22;37475;43.358;1.248;2023-12-20T12:29:37;9.90;82.00
51383;DHT22;37475;43.358;1.248;2023-12-20T12:32:07;10.00;82.00
51383;DHT22;37475;43.358;1.248;2023-12-20T12:34:34;10.40;81.20
51383;DHT22;37475;43.358;1.248;2023-12-20T12:37:04;10.30;78.80
51383;DHT22;37475;43.358;1.248;2023-12-20T12:39:30;10.10;78.10
51383;DHT22;37475;43.358;1.248;2023-12-20T12:41:56;9.60;79.50
51383;DHT22;37475;43.358;1.248;2023-12-20T12:44:22;9.60;79.40
51383;DHT22;37475;43.358;1.248;2023-12-20T12:46:51;9.30;79.80
51383;DHT22;37475;43.358;1.248;2023-12-20T12:49:21;9.30;80.50
51383;DHT22;37475;43.358;1.248;2023-12-20T12:51:47;9.10;81.80
51383;DHT22;37475;43.358;1.248;2023-12-20T12:54:13;9.60;80.90
51383;DHT22;37475;43.358;1.248;2023-12-20T12:56:41;9.70;79.80
51383;DHT22;37475;43.358;1.248;2023-12-20T12:59:08;10.20;79.50
51383;DHT22;37475;43.358;1.248;2023-12-20T13:01:34;10.60;77.80
51383;DHT22;37475;43.358;1.248;2023-12-20T13:03:59;10.90;74.10
51383;DHT22;37475;43.358;1.248;2023-12-20T13:06:28;10.70;74.50
51383;DHT22;37475;43.358;1.248;2023-12-20T13:08:54;10.80;76.20
51383;DHT22;37475;43.358;1.248;2023-12-20T13:11:20;11.10;74.60
51383;DHT22;37475;43.358;1.248;2023-12-20T13:13:46;11.60;70.50
51383;DHT22;37475;43.358;1.248;2023-12-20T13:16:13;11.20;69.90
51383;DHT22;37475;43.358;1.248;2023-12-20T13:18:39;11.10;69.40
51383;DHT22;37475;43.358;1.248;2023-12-20T13:21:08;11.60;67.90
51383;DHT22;37475;43.358;1.248;2023-12-20T13:23:34;11.10;68.80
51383;DHT22;37475;43.358;1.248;2023-12-20T13:26:01;11.50;69.90
51383;DHT22;37475;43.358;1.248;2023-12-20T13:28:27;12.00;68.80
51383;DHT22;37475;43.358;1.248;2023-12-20T13:30:52;11.20;69.50
51383;DHT22;37475;43.358;1.248;2023-12-20T13:33:18;11.20;70.50
51383;DHT22;37475;43.358;1.248;2023-12-20T13:35:44;11.80;70.80
51383;DHT22;37475;43.358;1.248;2023-12-20T13:38:10;12.10;69.10
51383;DHT22;37475;43.358;1.248;2023-12-20T13:40:38;11.60;70.00
51383;DHT22;37475;43.358;1.248;2023-12-20T13:43:04;11.80;67.60
51383;DHT22;37475;43.358;1.248;2023-12-20T13:45:29;11.40;69.70
51383;DHT22;37475;43.358;1.248;2023-12-20T13:47:55;10.70;69.80
51383;DHT22;37475;43.358;1.248;2023-12-20T13:50:21;11.20;68.70
51383;DHT22;37475;43.358;1.248;2023-12-20T13:52:48;11.70;67.60
51383;DHT22;37475;43.358;1.248;2023-12-20T13:55:13;11.70;66.60
51383;DHT22;37475;43.358;1.248;2023-12-20T13:57:39;11.40;67.40
51383;DHT22;37475;43.358;1.248;2023-12-20T14:00:07;10.70;69.60
51383;DHT22;37475;43.358;1.248;2023-12-20T14:02:42;11.00;70.50
51383;DHT22;37475;43.358;1.248;2023-12-20T14:05:09;11.10;70.00
51383;DHT22;37475;43.358;1.248;2023-12-20T14:07:35;11.20;68.80
51383;DHT22;37475;43.358;1.248;2023-12-20T14:10:01;10.80;70.00
51383;DHT22;37475;43.358;1.248;2023-12-20T14:12:27;10.50;71.50
51383;DHT22;37475;43.358;1.248;2023-12-20T14:14:53;10.30;72.30
51383;DHT22;37475;43.358;1.248;2023-12-20T14:17:21;10.20;72.90
51383;DHT22;37475;43.358;1.248;2023-12-20T14:19:47;10.60;72.20
51383;DHT22;37475;43.358;1.248;2023-12-20T14:22:13;10.90;70.30
51383;DHT22;37475;43.358;1.248;2023-12-20T14:24:42;10.40;71.00
51383;DHT22;37475;43.358;1.248;2023-12-20T14:27:08;10.50;73.10
51383;DHT22;37475;43.358;1.248;2023-12-20T14:29:35;10.90;71.40
51383;DHT22;37475;43.358;1.248;2023-12-20T14:32:01;11.00;70.50
51383;DHT22;37475;43.358;1.248;2023-12-20T14:34:29;11.50;70.40
51383;DHT22;37475;43.358;1.248;2023-12-20T14:36:55;11.30;65.80
51383;DHT22;37475;43.358;1.248;2023-12-20T14:39:21;10.80;68.20
51383;DHT22;37475;43.358;1.248;2023-12-20T14:41:47;10.40;70.80
51383;DHT22;37475;43.358;1.248;2023-12-20T14:44:12;10.10;71.20
51383;DHT22;37475;43.358;1.248;2023-12-20T14:46:38;9.90;73.50
51383;DHT22;37475;43.358;1.248;2023-12-20T14:49:05;9.50;73.80
51383;DHT22;37475;43.358;1.248;2023-12-20T14:51:31;9.40;74.60
51383;DHT22;37475;43.358;1.248;2023-12-20T14:53:57;9.30;74.40
51383;DHT22;37475;43.358;1.248;2023-12-20T14:56:23;9.60;73.40
51383;DHT22;37475;43.358;1.248;2023-12-20T14:58:51;9.50;73.60
51383;DHT22;37475;43.358;1.248;2023-12-20T15:01:17;9.30;74.30
51383;DHT22;37475;43.358;1.248;2023-12-20T15:03:47;9.20;74.30
51383;DHT22;37475;43.358;1.248;2023-12-20T15:06:13;9.10;74.30
51383;DHT22;37475;43.358;1.248;2023-12-20T15:08:39;9.10;75.70
51383;DHT22;37475;43.358;1.248;2023-12-20T15:11:04;9.00;75.30
51383;DHT22;37475;43.358;1.248;2023-12-20T15:13:31;9.00;75.40
51383;DHT22;37475;43.358;1.248;2023-12-20T15:15:57;9.00;74.90
51383;DHT22;37475;43.358;1.248;2023-12-20T15:18:22;9.00;75.40
51383;DHT22;37475;43.358;1.248;2023-12-20T15:20:48;8.90;75.50
51383;DHT22;37475;43.358;1.248;2023-12-20T15:23:14;8.80;76.10
51383;DHT22;37475;43.358;1.248;2023-12-20T15:25:42;8.90;76.30
51383;DHT22;37475;43.358;1.248;2023-12-20T15:28:07;8.80;76.40
51383;DHT22;37475;43.358;1.248;2023-12-20T15:30:33;8.80;77.00
51383;DHT22;37475;43.358;1.248;2023-12-20T15:32:59;8.80;77.80
51383;DHT22;37475;43.358;1.248;2023-12-20T15:35:25;8.80;77.30
51383;DHT22;37475;43.358;1.248;2023-12-20T15:37:51;8.80;77.60
51383;DHT22;37475;43.358;1.248;2023-12-20T15:40:17;8.80;76.90
51383;DHT22;37475;43.358;1.248;2023-12-20T15:42:43;8.80;76.10
51383;DHT22;37475;43.358;1.248;2023-12-20T15:45:09;8.80;77.00
51383;DHT22;37475;43.358;1.248;2023-12-20T15:47:35;8.80;77.40
51383;DHT22;37475;43.358;1.248;2023-12-20T15:50:04;8.80;77.70